sensor_id;sensor_type;location;lat;lon;timestamp;temperature;humidity
4874;DHT22;2451;49.970;9.068;2023-05-07T00:00:17;15.20;99.90
4874;DHT22;2451;49.970;9.068;2023-05-07T00:02:44;15.20;99.90
4874;DHT22;2451;49.970;9.068;2023-05-07T00:05:10;15.20;99.90
4874;DHT22;2451;49.970;9.068;2023-05-07T00:07:36;15.20;99.90
4874;DHT22;2451;49.970;9.068;2023-05-07T00:10:02;15.20;99.90
4874;DHT22;2451;49.970;9.068;2023-05-07T00:12:28;15.20;99.90
4874;DHT22;2451;49.970;9.068;2023-05-07T00:14:57;15.10;99.90
4874;DHT22;2451;49.970;9.068;2023-05-07T00:17:23;15.10;99.90
4874;DHT22;2451;49.970;9.068;2023-05-07T00:19:48;15.10;99.90
4874;DHT22;2451;49.970;9.068;2023-05-07T00:22:14;15.10;99.90
4874;DHT22;2451;49.970;9.068;2023-05-07T00:24:39;15.10;99.90
4874;DHT22;2451;49.970;9.068;2023-05-07T00:27:05;15.10;99.90
4874;DHT22;2451;49.970;9.068;2023-05-07T00:29:31;15.00;99.90
4874;DHT22;2451;49.970;9.068;2023-05-07T00:31:56;15.00;99.90
4874;DHT22;2451;49.970;9.068;2023-05-07T00:34:22;15.00;99.90
4874;DHT22;2451;49.970;9.068;2023-05-07T00:36:48;15.10;99.90
4874;DHT22;2451;49.970;9.068;2023-05-07T00:39:13;15.10;99.90
4874;DHT22;2451;49.970;9.068;2023-05-07T00:41:39;15.10;99.90
4874;DHT22;2451;49.970;9.068;2023-05-07T00:44:05;15.10;99.90
4874;DHT22;2451;49.970;9.068;2023-05-07T00:46:30;15.10;99.90
4874;DHT22;2451;49.970;9.068;2023-05-07T00:48:57;15.10;99.90
4874;DHT22;2451;49.970;9.068;2023-05-07T00:51:24;15.10;99.90
4874;DHT22;2451;49.970;9.068;2023-05-07T00:53:50;15.00;99.90
4874;DHT22;2451;49.970;9.068;2023-05-07T00:56:16;15.10;99.90
4874;DHT22;2451;49.970;9.068;2023-05-07T00:58:42;15.00;99.90
4874;DHT22;2451;49.970;9.068;2023-05-07T01:01:08;14.90;99.90
4874;DHT22;2451;49.970;9.068;2023-05-07T01:03:33;14.90;99.90
4874;DHT22;2451;49.970;9.068;2023-05-07T01:05:59;14.80;99.90
4874;DHT22;2451;49.970;9.068;2023-05-07T01:08:26;14.80;99.90
4874;DHT22;2451;49.970;9.068;2023-05-07T01:10:54;14.70;99.90
4874;DHT22;2451;49.970;9.068;2023-05-07T01:13:20;14.70;99.90
4874;DHT22;2451;49.970;9.068;2023-05-07T01:15:46;14.70;99.90
4874;DHT22;2451;49.970;9.068;2023-05-07T01:18:12;14.70;99.90
4874;DHT22;2451;49.970;9.068;2023-05-07T01:20:38;14.70;99.90
4874;DHT22;2451;49.970;9.068;2023-05-07T01:23:04;14.70;99.90
4874;DHT22;2451;49.970;9.068;2023-05-07T01:25:30;14.60;99.90
4874;DHT22;2451;49.970;9.068;2023-05-07T01:27:56;14.60;99.90
4874;DHT22;2451;49.970;9.068;2023-05-07T01:30:22;14.60;99.90
4874;DHT22;2451;49.970;9.068;2023-05-07T01:32:51;14.50;99.90
4874;DHT22;2451;49.970;9.068;2023-05-07T01:35:24;14.40;99.90
4874;DHT22;2451;49.970;9.068;2023-05-07T01:37:50;14.30;99.90
4874;DHT22;2451;49.970;9.068;2023-05-07T01:40:16;14.30;99.90
4874;DHT22;2451;49.970;9.068;2023-05-07T01:42:43;14.30;99.90
4874;DHT22;2451;49.970;9.068;2023-05-07T01:45:09;14.30;99.90
4874;DHT22;2451;49.970;9.068;2023-05-07T01:47:36;14.40;99.90
4874;DHT22;2451;49.970;9.068;2023-05-07T01:50:05;14.30;99.90
4874;DHT22;2451;49.970;9.068;2023-05-07T01:52:31;14.30;99.90
4874;DHT22;2451;49.970;9.068;2023-05-07T01:54:57;14.20;99.90
4874;DHT22;2451;49.970;9.068;2023-05-07T01:57:22;14.20;99.90
4874;DHT22;2451;49.970;9.068;2023-05-07T01:59:48;14.20;99.90
4874;DHT22;2451;49.970;9.068;2023-05-07T02:02:13;14.20;99.90
4874;DHT22;2451;49.970;9.068;2023-05-07T02:04:39;14.20;99.90
4874;DHT22;2451;49.970;9.068;2023-05-07T02:07:04;14.20;99.90
4874;DHT22;2451;49.970;9.068;2023-05-07T02:09:30;14.20;99.90
4874;DHT22;2451;49.970;9.068;2023-05-07T02:11:56;14.20;99.90
4874;DHT22;2451;49.970;9.068;2023-05-07T02:14:21;14.20;99.90
4874;DHT22;2451;49.970;9.068;2023-05-07T02:16:47;14.20;99.90
4874;DHT22;2451;49.970;9.068;2023-05-07T02:19:12;14.20;99.90
4874;DHT22;2451;49.970;9.068;2023-05-07T02:21:38;14.20;99.90
4874;DHT22;2451;49.970;9.068;2023-05-07T02:24:03;14.20;99.90
4874;DHT22;2451;49.970;9.068;2023-05-07T02:26:29;14.20;99.90
4874;DHT22;2451;49.970;9.068;2023-05-07T02:28:55;14.20;99.90
4874;DHT22;2451;49.970;9.068;2023-05-07T02:31:20;14.20;99.90
4874;DHT22;2451;49.970;9.068;2023-05-07T02:33:46;14.20;99.90
4874;DHT22;2451;49.970;9.068;2023-05-07T02:36:12;14.20;99.90
4874;DHT22;2451;49.970;9.068;2023-05-07T02:38:38;14.20;99.90
4874;DHT22;2451;49.970;9.068;2023-05-07T02:41:04;14.20;99.90
4874;DHT22;2451;49.970;9.068;2023-05-07T02:43:29;14.20;99.90
4874;DHT22;2451;49.970;9.068;2023-05-07T02:46:08;14.20;99.90
4874;DHT22;2451;49.970;9.068;2023-05-07T02:48:34;14.20;99.90
4874;DHT22;2451;49.970;9.068;2023-05-07T02:51:01;14.10;99.90
4874;DHT22;2451;49.970;9.068;2023-05-07T02:53:27;14.20;99.90
4874;DHT22;2451;49.970;9.068;2023-05-07T02:55:53;14.20;99.90
4874;DHT22;2451;49.970;9.068;2023-05-07T02:58:19;14.20;99.90
4874;DHT22;2451;49.970;9.068;2023-05-07T03:00:45;14.20;99.90
4874;DHT22;2451;49.970;9.068;2023-05-07T03:03:10;14.20;99.90
4874;DHT22;2451;49.970;9.068;2023-05-07T03:05:36;14.20;99.90
4874;DHT22;2451;49.970;9.068;2023-05-07T03:08:02;14.10;99.90
4874;DHT22;2451;49.970;9.068;2023-05-07T03:10:28;14.00;99.90
4874;DHT22;2451;49.970;9.068;2023-05-07T03:12:53;14.00;99.90
4874;DHT22;2451;49.970;9.068;2023-05-07T03:15:19;14.00;99.90
4874;DHT22;2451;49.970;9.068;2023-05-07T03:17:44;14.00;99.90
4874;DHT22;2451;49.970;9.068;2023-05-07T03:20:10;13.90;99.90
4874;DHT22;2451;49.970;9.068;2023-05-07T03:22:36;13.90;99.90
4874;DHT22;2451;49.970;9.068;2023-05-07T03:25:01;13.90;99.90
4874;DHT22;2451;49.970;9.068;2023-05-07T03:27:27;13.80;99.90
4874;DHT22;2451;49.970;9.068;2023-05-07T03:29:52;13.80;99.90
4874;DHT22;2451;49.970;9.068;2023-05-07T03:32:18;13.80;99.90
4874;DHT22;2451;49.970;9.068;2023-05-07T03:34:43;13.80;99.90
4874;DHT22;2451;49.970;9.068;2023-05-07T03:37:09;13.70;99.90
4874;DHT22;2451;49.970;9.068;2023-05-07T03:39:35;13.70;99.90
4874;DHT22;2451;49.970;9.068;2023-05-07T03:42:00;13.70;99.90
4874;DHT22;2451;49.970;9.068;2023-05-07T03:44:26;13.70;99.90
4874;DHT22;2451;49.970;9.068;2023-05-07T03:46:51;13.60;99.90
4874;DHT22;2451;49.970;9.068;2023-05-07T03:49:17;13.60;99.90
4874;DHT22;2451;49.970;9.068;2023-05-07T03:51:42;13.60;99.90
4874;DHT22;2451;49.970;9.068;2023-05-07T03:54:08;13.60;99.90
4874;DHT22;2451;49.970;9.068;2023-05-07T03:56:34;13.60;99.90
4874;DHT22;2451;49.970;9.068;2023-05-07T03:59:01;13.60;99.90
4874;DHT22;2451;49.970;9.068;2023-05-07T04:01:26;13.60;99.90
4874;DHT22;2451;49.970;9.068;2023-05-07T04:03:52;13.60;99.90
4874;DHT22;2451;49.970;9.068;2023-05-07T04:06:17;13.60;99.90
4874;DHT22;2451;49.970;9.068;2023-05-07T04:08:43;13.70;99.90
4874;DHT22;2451;49.970;9.068;2023-05-07T04:11:09;13.70;99.90
4874;DHT22;2451;49.970;9.068;2023-05-07T04:13:34;13.70;99.90
4874;DHT22;2451;49.970;9.068;2023-05-07T04:16:02;13.70;99.90
4874;DHT22;2451;49.970;9.068;2023-05-07T04:18:28;13.70;99.90
4874;DHT22;2451;49.970;9.068;2023-05-07T04:20:54;13.70;99.90
4874;DHT22;2451;49.970;9.068;2023-05-07T04:23:19;13.70;99.90
4874;DHT22;2451;49.970;9.068;2023-05-07T04:25:45;13.70;99.90
4874;DHT22;2451;49.970;9.068;2023-05-07T04:28:11;13.60;99.90
4874;DHT22;2451;49.970;9.068;2023-05-07T04:30:37;13.70;99.90
4874;DHT22;2451;49.970;9.068;2023-05-07T04:33:02;13.70;99.90
4874;DHT22;2451;49.970;9.068;2023-05-07T04:35:28;13.70;99.90
4874;DHT22;2451;49.970;9.068;2023-05-07T04:37:53;13.80;99.90
4874;DHT22;2451;49.970;9.068;2023-05-07T04:40:19;13.90;99.90
4874;DHT22;2451;49.970;9.068;2023-05-07T04:42:45;13.90;99.90
4874;DHT22;2451;49.970;9.068;2023-05-07T04:45:10;14.00;99.90
4874;DHT22;2451;49.970;9.068;2023-05-07T04:47:37;14.00;99.90
4874;DHT22;2451;49.970;9.068;2023-05-07T04:50:03;14.00;99.90
4874;DHT22;2451;49.970;9.068;2023-05-07T04:52:29;14.10;99.90
4874;DHT22;2451;49.970;9.068;2023-05-07T04:54:55;14.10;99.90
4874;DHT22;2451;49.970;9.068;2023-05-07T04:57:21;14.10;99.90
4874;DHT22;2451;49.970;9.068;2023-05-07T04:59:46;14.10;99.90
4874;DHT22;2451;49.970;9.068;2023-05-07T05:02:12;14.10;99.90
4874;DHT22;2451;49.970;9.068;2023-05-07T05:04:37;14.10;99.90
4874;DHT22;2451;49.970;9.068;2023-05-07T05:07:03;14.10;99.90
4874;DHT22;2451;49.970;9.068;2023-05-07T05:09:29;14.10;99.90
4874;DHT22;2451;49.970;9.068;2023-05-07T05:11:55;14.20;99.90
4874;DHT22;2451;49.970;9.068;2023-05-07T05:14:20;14.20;99.90
4874;DHT22;2451;49.970;9.068;2023-05-07T05:16:46;14.30;99.90
4874;DHT22;2451;49.970;9.068;2023-05-07T05:19:12;14.30;99.90
4874;DHT22;2451;49.970;9.068;2023-05-07T05:21:37;14.40;99.90
4874;DHT22;2451;49.970;9.068;2023-05-07T05:24:03;14.40;99.90
4874;DHT22;2451;49.970;9.068;2023-05-07T05:26:28;14.50;99.90
4874;DHT22;2451;49.970;9.068;2023-05-07T05:28:54;14.60;99.90
4874;DHT22;2451;49.970;9.068;2023-05-07T05:31:20;14.60;99.90
4874;DHT22;2451;49.970;9.068;2023-05-07T05:33:46;14.70;99.90
4874;DHT22;2451;49.970;9.068;2023-05-07T05:36:12;14.80;99.90
4874;DHT22;2451;49.970;9.068;2023-05-07T05:38:38;14.80;99.90
4874;DHT22;2451;49.970;9.068;2023-05-07T05:41:04;14.90;99.90
4874;DHT22;2451;49.970;9.068;2023-05-07T05:43:30;15.10;99.90
4874;DHT22;2451;49.970;9.068;2023-05-07T05:45:56;15.20;99.90
4874;DHT22;2451;49.970;9.068;2023-05-07T05:48:22;15.20;99.90
4874;DHT22;2451;49.970;9.068;2023-05-07T05:50:48;15.30;99.90
4874;DHT22;2451;49.970;9.068;2023-05-07T05:53:13;15.40;99.90
4874;DHT22;2451;49.970;9.068;2023-05-07T05:55:39;15.40;99.90
4874;DHT22;2451;49.970;9.068;2023-05-07T05:58:05;15.50;99.90
4874;DHT22;2451;49.970;9.068;2023-05-07T06:00:31;15.60;99.90
4874;DHT22;2451;49.970;9.068;2023-05-07T06:02:56;15.60;99.90
4874;DHT22;2451;49.970;9.068;2023-05-07T06:05:22;15.60;99.90
4874;DHT22;2451;49.970;9.068;2023-05-07T06:07:47;15.70;99.90
4874;DHT22;2451;49.970;9.068;2023-05-07T06:10:13;15.70;99.90
4874;DHT22;2451;49.970;9.068;2023-05-07T06:12:39;15.70;99.90
4874;DHT22;2451;49.970;9.068;2023-05-07T06:15:05;15.70;99.90
4874;DHT22;2451;49.970;9.068;2023-05-07T06:17:31;15.70;99.90
4874;DHT22;2451;49.970;9.068;2023-05-07T06:19:57;15.80;99.90
4874;DHT22;2451;49.970;9.068;2023-05-07T06:22:22;15.80;99.90
4874;DHT22;2451;49.970;9.068;2023-05-07T06:24:48;15.90;99.90
4874;DHT22;2451;49.970;9.068;2023-05-07T06:27:14;15.90;99.90
4874;DHT22;2451;49.970;9.068;2023-05-07T06:29:39;16.00;99.90
4874;DHT22;2451;49.970;9.068;2023-05-07T06:32:09;16.00;99.90
4874;DHT22;2451;49.970;9.068;2023-05-07T06:34:35;16.10;99.90
4874;DHT22;2451;49.970;9.068;2023-05-07T06:37:00;16.10;99.90
4874;DHT22;2451;49.970;9.068;2023-05-07T06:39:26;16.20;99.90
4874;DHT22;2451;49.970;9.068;2023-05-07T06:41:52;16.20;99.90
4874;DHT22;2451;49.970;9.068;2023-05-07T06:44:17;16.30;99.90
4874;DHT22;2451;49.970;9.068;2023-05-07T06:46:43;16.30;99.90
4874;DHT22;2451;49.970;9.068;2023-05-07T06:49:08;16.40;99.90
4874;DHT22;2451;49.970;9.068;2023-05-07T06:51:34;16.50;99.90
4874;DHT22;2451;49.970;9.068;2023-05-07T06:54:00;16.60;99.90
4874;DHT22;2451;49.970;9.068;2023-05-07T06:56:25;16.70;99.90
4874;DHT22;2451;49.970;9.068;2023-05-07T06:58:51;16.80;99.90
4874;DHT22;2451;49.970;9.068;2023-05-07T07:01:16;16.90;99.90
4874;DHT22;2451;49.970;9.068;2023-05-07T07:03:42;16.90;99.90
4874;DHT22;2451;49.970;9.068;2023-05-07T07:06:07;17.00;99.90
4874;DHT22;2451;49.970;9.068;2023-05-07T07:08:33;17.00;99.90
4874;DHT22;2451;49.970;9.068;2023-05-07T07:11:00;17.10;99.90
4874;DHT22;2451;49.970;9.068;2023-05-07T07:13:25;17.20;99.90
4874;DHT22;2451;49.970;9.068;2023-05-07T07:15:51;17.30;99.90
4874;DHT22;2451;49.970;9.068;2023-05-07T07:18:18;17.50;99.90
4874;DHT22;2451;49.970;9.068;2023-05-07T07:20:43;17.60;99.90
4874;DHT22;2451;49.970;9.068;2023-05-07T07:23:09;17.60;99.90
4874;DHT22;2451;49.970;9.068;2023-05-07T07:25:35;17.60;99.90
4874;DHT22;2451;49.970;9.068;2023-05-07T07:28:01;17.60;99.90
4874;DHT22;2451;49.970;9.068;2023-05-07T07:30:27;17.60;99.90
4874;DHT22;2451;49.970;9.068;2023-05-07T07:32:53;17.60;99.90
4874;DHT22;2451;49.970;9.068;2023-05-07T07:35:18;17.50;99.90
4874;DHT22;2451;49.970;9.068;2023-05-07T07:37:44;17.50;99.90
4874;DHT22;2451;49.970;9.068;2023-05-07T07:40:11;17.50;99.90
4874;DHT22;2451;49.970;9.068;2023-05-07T07:42:37;17.50;99.90
4874;DHT22;2451;49.970;9.068;2023-05-07T07:45:03;17.50;99.90
4874;DHT22;2451;49.970;9.068;2023-05-07T07:47:28;17.50;99.90
4874;DHT22;2451;49.970;9.068;2023-05-07T07:49:54;17.50;99.90
4874;DHT22;2451;49.970;9.068;2023-05-07T07:52:20;17.60;99.90
4874;DHT22;2451;49.970;9.068;2023-05-07T07:54:45;17.70;99.90
4874;DHT22;2451;49.970;9.068;2023-05-07T07:57:11;17.70;99.90
4874;DHT22;2451;49.970;9.068;2023-05-07T07:59:37;17.70;99.90
4874;DHT22;2451;49.970;9.068;2023-05-07T08:02:02;17.90;99.90
4874;DHT22;2451;49.970;9.068;2023-05-07T08:04:28;17.80;99.90
4874;DHT22;2451;49.970;9.068;2023-05-07T08:06:53;17.80;99.90
4874;DHT22;2451;49.970;9.068;2023-05-07T08:09:19;17.80;99.90
4874;DHT22;2451;49.970;9.068;2023-05-07T08:11:45;17.90;99.90
4874;DHT22;2451;49.970;9.068;2023-05-07T08:14:11;17.90;99.90
4874;DHT22;2451;49.970;9.068;2023-05-07T08:16:37;18.00;99.90
4874;DHT22;2451;49.970;9.068;2023-05-07T08:19:02;18.10;99.90
4874;DHT22;2451;49.970;9.068;2023-05-07T08:21:28;18.10;99.90
4874;DHT22;2451;49.970;9.068;2023-05-07T08:23:53;18.20;99.90
4874;DHT22;2451;49.970;9.068;2023-05-07T08:26:19;18.30;99.90
4874;DHT22;2451;49.970;9.068;2023-05-07T08:28:45;18.30;99.90
4874;DHT22;2451;49.970;9.068;2023-05-07T08:31:11;18.40;99.90
4874;DHT22;2451;49.970;9.068;2023-05-07T08:33:36;18.40;99.90
4874;DHT22;2451;49.970;9.068;2023-05-07T08:36:03;18.50;99.90
4874;DHT22;2451;49.970;9.068;2023-05-07T08:38:29;18.50;99.90
4874;DHT22;2451;49.970;9.068;2023-05-07T08:40:55;18.60;99.90
4874;DHT22;2451;49.970;9.068;2023-05-07T08:43:21;18.60;99.90
4874;DHT22;2451;49.970;9.068;2023-05-07T08:45:49;18.60;99.90
4874;DHT22;2451;49.970;9.068;2023-05-07T08:48:17;18.70;99.90
4874;DHT22;2451;49.970;9.068;2023-05-07T08:50:45;18.70;99.90
4874;DHT22;2451;49.970;9.068;2023-05-07T08:53:11;18.80;99.90
4874;DHT22;2451;49.970;9.068;2023-05-07T08:55:37;18.80;99.90
4874;DHT22;2451;49.970;9.068;2023-05-07T08:58:03;18.90;99.90
4874;DHT22;2451;49.970;9.068;2023-05-07T09:00:29;19.00;99.90
4874;DHT22;2451;49.970;9.068;2023-05-07T09:02:56;19.10;99.90
4874;DHT22;2451;49.970;9.068;2023-05-07T09:05:21;19.20;99.90
4874;DHT22;2451;49.970;9.068;2023-05-07T09:07:47;19.40;99.90
4874;DHT22;2451;49.970;9.068;2023-05-07T09:10:13;19.60;99.90
4874;DHT22;2451;49.970;9.068;2023-05-07T09:12:39;19.80;99.90
4874;DHT22;2451;49.970;9.068;2023-05-07T09:15:06;20.00;99.90
4874;DHT22;2451;49.970;9.068;2023-05-07T09:17:31;20.20;99.90
4874;DHT22;2451;49.970;9.068;2023-05-07T09:20:05;20.50;99.90
4874;DHT22;2451;49.970;9.068;2023-05-07T09:22:37;20.60;99.90
4874;DHT22;2451;49.970;9.068;2023-05-07T09:25:03;20.80;99.90
4874;DHT22;2451;49.970;9.068;2023-05-07T09:27:29;20.80;99.90
4874;DHT22;2451;49.970;9.068;2023-05-07T09:29:55;20.90;99.90
4874;DHT22;2451;49.970;9.068;2023-05-07T09:32:21;21.20;99.90
4874;DHT22;2451;49.970;9.068;2023-05-07T09:34:47;21.30;99.90
4874;DHT22;2451;49.970;9.068;2023-05-07T09:37:13;21.40;99.90
4874;DHT22;2451;49.970;9.068;2023-05-07T09:39:45;21.60;99.90
4874;DHT22;2451;49.970;9.068;2023-05-07T09:42:12;21.60;99.90
4874;DHT22;2451;49.970;9.068;2023-05-07T09:44:38;21.70;99.90
4874;DHT22;2451;49.970;9.068;2023-05-07T09:47:06;21.70;99.90
4874;DHT22;2451;49.970;9.068;2023-05-07T09:49:34;21.70;99.90
4874;DHT22;2451;49.970;9.068;2023-05-07T09:52:03;21.70;99.90
4874;DHT22;2451;49.970;9.068;2023-05-07T09:54:29;21.90;99.90
4874;DHT22;2451;49.970;9.068;2023-05-07T09:56:55;22.10;99.90
4874;DHT22;2451;49.970;9.068;2023-05-07T09:59:21;22.30;99.90
4874;DHT22;2451;49.970;9.068;2023-05-07T10:01:48;22.80;99.90
4874;DHT22;2451;49.970;9.068;2023-05-07T10:04:14;23.20;99.90
4874;DHT22;2451;49.970;9.068;2023-05-07T10:06:40;23.40;99.90
4874;DHT22;2451;49.970;9.068;2023-05-07T10:09:07;23.80;99.90
4874;DHT22;2451;49.970;9.068;2023-05-07T10:11:33;24.30;99.90
4874;DHT22;2451;49.970;9.068;2023-05-07T10:14:00;24.40;99.90
4874;DHT22;2451;49.970;9.068;2023-05-07T10:16:33;24.70;99.90
4874;DHT22;2451;49.970;9.068;2023-05-07T10:19:03;24.60;99.90
4874;DHT22;2451;49.970;9.068;2023-05-07T10:21:29;24.70;99.90
4874;DHT22;2451;49.970;9.068;2023-05-07T10:24:08;25.10;99.90
4874;DHT22;2451;49.970;9.068;2023-05-07T10:26:42;25.50;99.90
4874;DHT22;2451;49.970;9.068;2023-05-07T10:34:35;25.80;99.30
4874;DHT22;2451;49.970;9.068;2023-05-07T10:37:02;25.90;99.00
4874;DHT22;2451;49.970;9.068;2023-05-07T10:39:28;25.80;98.20
4874;DHT22;2451;49.970;9.068;2023-05-07T10:41:53;25.70;98.70
4874;DHT22;2451;49.970;9.068;2023-05-07T10:44:29;25.50;98.70
4874;DHT22;2451;49.970;9.068;2023-05-07T10:49:35;25.10;99.10
4874;DHT22;2451;49.970;9.068;2023-05-07T10:52:19;25.00;99.40
4874;DHT22;2451;49.970;9.068;2023-05-07T10:54:45;24.70;99.00
4874;DHT22;2451;49.970;9.068;2023-05-07T10:57:36;24.70;99.10
4874;DHT22;2451;49.970;9.068;2023-05-07T11:05:25;25.00;98.30
4874;DHT22;2451;49.970;9.068;2023-05-07T11:07:58;25.00;98.70
4874;DHT22;2451;49.970;9.068;2023-05-07T11:10:52;25.00;99.10
4874;DHT22;2451;49.970;9.068;2023-05-07T11:13:41;24.90;98.80
4874;DHT22;2451;49.970;9.068;2023-05-07T11:16:19;24.90;98.80
4874;DHT22;2451;49.970;9.068;2023-05-07T11:18:52;25.20;99.20
4874;DHT22;2451;49.970;9.068;2023-05-07T11:21:37;25.20;97.60
4874;DHT22;2451;49.970;9.068;2023-05-07T11:24:04;25.30;97.40
4874;DHT22;2451;49.970;9.068;2023-05-07T11:26:41;25.20;96.90
4874;DHT22;2451;49.970;9.068;2023-05-07T11:29:17;24.90;97.40
4874;DHT22;2451;49.970;9.068;2023-05-07T11:31:43;24.80;97.80
4874;DHT22;2451;49.970;9.068;2023-05-07T11:34:09;25.00;98.60
4874;DHT22;2451;49.970;9.068;2023-05-07T11:36:41;25.20;97.40
4874;DHT22;2451;49.970;9.068;2023-05-07T11:39:28;25.50;97.10
4874;DHT22;2451;49.970;9.068;2023-05-07T11:41:54;25.60;95.10
4874;DHT22;2451;49.970;9.068;2023-05-07T11:44:20;25.80;95.10
4874;DHT22;2451;49.970;9.068;2023-05-07T11:46:45;26.00;94.90
4874;DHT22;2451;49.970;9.068;2023-05-07T11:49:11;26.20;94.90
4874;DHT22;2451;49.970;9.068;2023-05-07T11:51:37;26.30;94.60
4874;DHT22;2451;49.970;9.068;2023-05-07T11:54:06;26.40;93.70
4874;DHT22;2451;49.970;9.068;2023-05-07T11:56:36;26.40;93.40
4874;DHT22;2451;49.970;9.068;2023-05-07T11:59:02;26.50;93.30
4874;DHT22;2451;49.970;9.068;2023-05-07T12:01:28;26.70;92.60
4874;DHT22;2451;49.970;9.068;2023-05-07T12:03:53;26.70;91.80
4874;DHT22;2451;49.970;9.068;2023-05-07T12:06:19;26.80;91.70
4874;DHT22;2451;49.970;9.068;2023-05-07T12:08:45;26.80;91.00
4874;DHT22;2451;49.970;9.068;2023-05-07T12:11:15;26.70;91.50
4874;DHT22;2451;49.970;9.068;2023-05-07T12:13:43;26.20;91.90
4874;DHT22;2451;49.970;9.068;2023-05-07T12:16:09;26.20;92.10
4874;DHT22;2451;49.970;9.068;2023-05-07T12:18:36;25.90;91.80
4874;DHT22;2451;49.970;9.068;2023-05-07T12:21:03;25.50;91.80
4874;DHT22;2451;49.970;9.068;2023-05-07T12:23:30;25.40;92.60
4874;DHT22;2451;49.970;9.068;2023-05-07T12:25:55;25.30;92.60
4874;DHT22;2451;49.970;9.068;2023-05-07T12:28:21;25.30;92.40
4874;DHT22;2451;49.970;9.068;2023-05-07T12:30:49;25.20;91.50
4874;DHT22;2451;49.970;9.068;2023-05-07T12:33:23;25.30;92.20
4874;DHT22;2451;49.970;9.068;2023-05-07T12:35:49;25.50;92.00
4874;DHT22;2451;49.970;9.068;2023-05-07T12:38:16;25.60;92.20
4874;DHT22;2451;49.970;9.068;2023-05-07T12:40:47;25.60;92.30
4874;DHT22;2451;49.970;9.068;2023-05-07T12:43:25;25.70;92.80
4874;DHT22;2451;49.970;9.068;2023-05-07T12:45:54;25.70;92.00
4874;DHT22;2451;49.970;9.068;2023-05-07T12:48:20;25.80;91.50
4874;DHT22;2451;49.970;9.068;2023-05-07T12:50:49;25.90;91.90
4874;DHT22;2451;49.970;9.068;2023-05-07T12:53:15;26.10;91.20
4874;DHT22;2451;49.970;9.068;2023-05-07T12:55:43;26.00;90.80
4874;DHT22;2451;49.970;9.068;2023-05-07T12:58:17;26.00;90.00
4874;DHT22;2451;49.970;9.068;2023-05-07T13:00:44;25.90;89.90
4874;DHT22;2451;49.970;9.068;2023-05-07T13:03:10;26.10;89.30
4874;DHT22;2451;49.970;9.068;2023-05-07T13:05:36;26.20;86.90
4874;DHT22;2451;49.970;9.068;2023-05-07T13:08:02;26.30;86.50
4874;DHT22;2451;49.970;9.068;2023-05-07T13:10:27;26.50;85.60
4874;DHT22;2451;49.970;9.068;2023-05-07T13:12:54;26.70;86.90
4874;DHT22;2451;49.970;9.068;2023-05-07T13:15:19;26.90;86.00
4874;DHT22;2451;49.970;9.068;2023-05-07T13:17:45;27.00;85.20
4874;DHT22;2451;49.970;9.068;2023-05-07T13:20:11;27.20;82.80
4874;DHT22;2451;49.970;9.068;2023-05-07T13:22:38;27.30;83.00
4874;DHT22;2451;49.970;9.068;2023-05-07T13:25:04;27.40;83.90
4874;DHT22;2451;49.970;9.068;2023-05-07T13:27:30;27.50;82.70
4874;DHT22;2451;49.970;9.068;2023-05-07T13:29:56;27.50;81.70
4874;DHT22;2451;49.970;9.068;2023-05-07T13:32:22;27.50;79.90
4874;DHT22;2451;49.970;9.068;2023-05-07T13:34:47;27.20;79.50
4874;DHT22;2451;49.970;9.068;2023-05-07T13:37:13;26.80;81.20
4874;DHT22;2451;49.970;9.068;2023-05-07T13:39:38;26.70;82.30
4874;DHT22;2451;49.970;9.068;2023-05-07T13:42:04;26.60;80.90
4874;DHT22;2451;49.970;9.068;2023-05-07T13:44:30;26.70;82.50
4874;DHT22;2451;49.970;9.068;2023-05-07T13:46:55;26.80;80.10
4874;DHT22;2451;49.970;9.068;2023-05-07T13:49:21;26.90;78.00
4874;DHT22;2451;49.970;9.068;2023-05-07T13:51:46;26.90;79.10
4874;DHT22;2451;49.970;9.068;2023-05-07T13:54:12;27.00;78.80
4874;DHT22;2451;49.970;9.068;2023-05-07T13:56:37;27.30;80.40
4874;DHT22;2451;49.970;9.068;2023-05-07T13:59:03;27.20;78.50
4874;DHT22;2451;49.970;9.068;2023-05-07T14:01:28;26.90;78.50
4874;DHT22;2451;49.970;9.068;2023-05-07T14:03:56;26.40;81.60
4874;DHT22;2451;49.970;9.068;2023-05-07T14:06:21;26.20;82.40
4874;DHT22;2451;49.970;9.068;2023-05-07T14:08:47;26.10;83.30
4874;DHT22;2451;49.970;9.068;2023-05-07T14:11:12;26.00;82.90
4874;DHT22;2451;49.970;9.068;2023-05-07T14:13:38;25.80;82.60
4874;DHT22;2451;49.970;9.068;2023-05-07T14:16:04;25.80;83.40
4874;DHT22;2451;49.970;9.068;2023-05-07T14:18:30;25.80;84.80
4874;DHT22;2451;49.970;9.068;2023-05-07T14:20:56;25.80;85.60
4874;DHT22;2451;49.970;9.068;2023-05-07T14:23:21;25.70;85.40
4874;DHT22;2451;49.970;9.068;2023-05-07T14:25:54;25.60;85.50
4874;DHT22;2451;49.970;9.068;2023-05-07T14:28:21;25.70;86.40
4874;DHT22;2451;49.970;9.068;2023-05-07T14:30:47;25.70;85.20
4874;DHT22;2451;49.970;9.068;2023-05-07T14:33:13;25.80;85.50
4874;DHT22;2451;49.970;9.068;2023-05-07T14:35:39;25.80;85.80
4874;DHT22;2451;49.970;9.068;2023-05-07T14:38:04;25.80;85.80
4874;DHT22;2451;49.970;9.068;2023-05-07T14:40:30;25.70;84.50
4874;DHT22;2451;49.970;9.068;2023-05-07T14:42:55;25.40;86.10
4874;DHT22;2451;49.970;9.068;2023-05-07T14:45:22;25.40;87.60
4874;DHT22;2451;49.970;9.068;2023-05-07T14:47:48;25.30;86.40
4874;DHT22;2451;49.970;9.068;2023-05-07T14:50:13;25.10;86.90
4874;DHT22;2451;49.970;9.068;2023-05-07T14:52:39;25.00;88.20
4874;DHT22;2451;49.970;9.068;2023-05-07T14:55:05;24.90;88.50
4874;DHT22;2451;49.970;9.068;2023-05-07T14:57:31;24.80;89.20
4874;DHT22;2451;49.970;9.068;2023-05-07T15:00:00;24.70;88.30
4874;DHT22;2451;49.970;9.068;2023-05-07T15:02:26;24.70;89.00
4874;DHT22;2451;49.970;9.068;2023-05-07T15:04:51;24.70;90.00
4874;DHT22;2451;49.970;9.068;2023-05-07T15:07:17;24.70;89.40
4874;DHT22;2451;49.970;9.068;2023-05-07T15:09:43;24.60;89.20
4874;DHT22;2451;49.970;9.068;2023-05-07T15:12:09;24.50;90.10
4874;DHT22;2451;49.970;9.068;2023-05-07T15:14:36;24.40;90.20
4874;DHT22;2451;49.970;9.068;2023-05-07T15:17:01;24.20;89.40
4874;DHT22;2451;49.970;9.068;2023-05-07T15:19:27;24.10;90.10
4874;DHT22;2451;49.970;9.068;2023-05-07T15:21:57;23.90;89.80
4874;DHT22;2451;49.970;9.068;2023-05-07T15:24:24;23.80;90.20
4874;DHT22;2451;49.970;9.068;2023-05-07T15:26:51;23.60;90.40
4874;DHT22;2451;49.970;9.068;2023-05-07T15:29:17;23.50;90.60
4874;DHT22;2451;49.970;9.068;2023-05-07T15:31:42;23.50;90.70
4874;DHT22;2451;49.970;9.068;2023-05-07T15:34:08;23.50;90.70
4874;DHT22;2451;49.970;9.068;2023-05-07T15:36:34;23.40;90.80
4874;DHT22;2451;49.970;9.068;2023-05-07T15:38:59;23.40;91.60
4874;DHT22;2451;49.970;9.068;2023-05-07T15:41:27;23.40;91.90
4874;DHT22;2451;49.970;9.068;2023-05-07T15:43:52;23.40;92.10
4874;DHT22;2451;49.970;9.068;2023-05-07T15:46:19;23.40;92.40
4874;DHT22;2451;49.970;9.068;2023-05-07T15:48:46;23.30;92.80
4874;DHT22;2451;49.970;9.068;2023-05-07T15:51:12;23.30;92.90
4874;DHT22;2451;49.970;9.068;2023-05-07T15:53:37;23.20;92.90
4874;DHT22;2451;49.970;9.068;2023-05-07T15:56:04;23.20;93.70
4874;DHT22;2451;49.970;9.068;2023-05-07T15:58:30;23.10;93.60
4874;DHT22;2451;49.970;9.068;2023-05-07T16:00:55;23.10;93.50
4874;DHT22;2451;49.970;9.068;2023-05-07T16:03:21;23.10;94.00
4874;DHT22;2451;49.970;9.068;2023-05-07T16:05:47;23.10;93.70
4874;DHT22;2451;49.970;9.068;2023-05-07T16:08:13;23.00;93.60
4874;DHT22;2451;49.970;9.068;2023-05-07T16:10:39;22.90;93.90